sensor_id;sensor_type;location;lat;lon;timestamp;P1;durP1;ratioP1;P2;durP2;ratioP2
56299;SDS011;42209;6.376;-10.782;2022-11-15T00:02:19;7.03;;;5.72;;
56299;SDS011;42209;6.376;-10.782;2022-11-15T00:05:12;5.70;;;5.07;;
56299;SDS011;42209;6.376;-10.782;2022-11-15T00:08:00;5.22;;;4.72;;
56299;SDS011;42209;6.376;-10.782;2022-11-15T00:10:56;6.45;;;5.60;;
56299;SDS011;42209;6.376;-10.782;2022-11-15T00:13:44;5.33;;;3.43;;
56299;SDS011;42209;6.376;-10.782;2022-11-15T00:16:30;7.03;;;4.88;;
56299;SDS011;42209;6.376;-10.782;2022-11-15T00:19:17;7.93;;;5.03;;
56299;SDS011;42209;6.376;-10.782;2022-11-15T00:22:03;5.57;;;4.90;;
56299;SDS011;42209;6.376;-10.782;2022-11-15T00:24:50;7.75;;;4.70;;
56299;SDS011;42209;6.376;-10.782;2022-11-15T00:27:37;6.32;;;4.65;;
56299;SDS011;42209;6.376;-10.782;2022-11-15T00:30:24;5.82;;;4.75;;
56299;SDS011;42209;6.376;-10.782;2022-11-15T00:33:12;5.90;;;4.60;;
56299;SDS011;42209;6.376;-10.782;2022-11-15T00:38:52;5.82;;;4.40;;
56299;SDS011;42209;6.376;-10.782;2022-11-15T00:41:39;4.78;;;4.20;;
56299;SDS011;42209;6.376;-10.782;2022-11-15T00:44:25;6.90;;;4.55;;
56299;SDS011;42209;6.376;-10.782;2022-11-15T00:47:11;5.70;;;4.82;;
56299;SDS011;42209;6.376;-10.782;2022-11-15T00:49:58;6.25;;;5.03;;
56299;SDS011;42209;6.376;-10.782;2022-11-15T00:52:44;5.85;;;4.60;;
56299;SDS011;42209;6.376;-10.782;2022-11-15T00:55:31;5.90;;;3.53;;
56299;SDS011;42209;6.376;-10.782;2022-11-15T00:58:17;5.68;;;4.38;;
56299;SDS011;42209;6.376;-10.782;2022-11-15T01:01:09;4.75;;;4.20;;
56299;SDS011;42209;6.376;-10.782;2022-11-15T01:03:57;4.50;;;3.45;;
56299;SDS011;42209;6.376;-10.782;2022-11-15T01:06:45;4.55;;;3.67;;
56299;SDS011;42209;6.376;-10.782;2022-11-15T01:09:32;4.28;;;3.88;;
56299;SDS011;42209;6.376;-10.782;2022-11-15T01:12:18;5.35;;;3.55;;
56299;SDS011;42209;6.376;-10.782;2022-11-15T01:15:05;4.45;;;3.53;;
56299;SDS011;42209;6.376;-10.782;2022-11-15T01:17:51;4.35;;;2.97;;
56299;SDS011;42209;6.376;-10.782;2022-11-15T01:20:41;4.88;;;3.90;;
56299;SDS011;42209;6.376;-10.782;2022-11-15T01:23:28;5.20;;;3.90;;
56299;SDS011;42209;6.376;-10.782;2022-11-15T01:26:15;4.25;;;3.50;;
56299;SDS011;42209;6.376;-10.782;2022-11-15T01:29:02;4.75;;;3.33;;
56299;SDS011;42209;6.376;-10.782;2022-11-15T01:31:48;3.97;;;2.88;;
56299;SDS011;42209;6.376;-10.782;2022-11-15T01:34:34;3.47;;;2.97;;
56299;SDS011;42209;6.376;-10.782;2022-11-15T01:37:21;3.50;;;3.17;;
56299;SDS011;42209;6.376;-10.782;2022-11-15T01:40:08;3.42;;;3.00;;
56299;SDS011;42209;6.376;-10.782;2022-11-15T01:42:54;3.83;;;3.38;;
56299;SDS011;42209;6.376;-10.782;2022-11-15T01:45:48;4.32;;;3.28;;
56299;SDS011;42209;6.376;-10.782;2022-11-15T01:48:42;4.85;;;3.55;;
56299;SDS011;42209;6.376;-10.782;2022-11-15T01:51:29;4.00;;;3.28;;
56299;SDS011;42209;6.376;-10.782;2022-11-15T01:54:18;5.18;;;3.63;;
56299;SDS011;42209;6.376;-10.782;2022-11-15T01:57:07;4.07;;;3.20;;
56299;SDS011;42209;6.376;-10.782;2022-11-15T01:59:56;4.22;;;3.13;;
56299;SDS011;42209;6.376;-10.782;2022-11-15T02:05:30;4.43;;;2.80;;
56299;SDS011;42209;6.376;-10.782;2022-11-15T02:08:17;4.90;;;3.20;;
56299;SDS011;42209;6.376;-10.782;2022-11-15T02:11:07;4.63;;;3.20;;
56299;SDS011;42209;6.376;-10.782;2022-11-15T02:13:54;6.00;;;2.75;;
56299;SDS011;42209;6.376;-10.782;2022-11-15T02:32:42;4.70;;;2.60;;
56299;SDS011;42209;6.376;-10.782;2022-11-15T02:42:02;4.75;;;2.95;;
56299;SDS011;42209;6.376;-10.782;2022-11-15T02:44:49;3.80;;;2.92;;
56299;SDS011;42209;6.376;-10.782;2022-11-15T02:47:41;3.40;;;2.60;;
56299;SDS011;42209;6.376;-10.782;2022-11-15T02:50:32;3.60;;;2.63;;
56299;SDS011;42209;6.376;-10.782;2022-11-15T02:53:23;3.38;;;2.13;;
56299;SDS011;42209;6.376;-10.782;2022-11-15T02:56:10;5.32;;;3.33;;
56299;SDS011;42209;6.376;-10.782;2022-11-15T03:04:53;4.00;;;2.95;;
56299;SDS011;42209;6.376;-10.782;2022-11-15T03:07:45;3.85;;;2.60;;
56299;SDS011;42209;6.376;-10.782;2022-11-15T03:20:25;4.03;;;2.55;;
56299;SDS011;42209;6.376;-10.782;2022-11-15T03:23:14;4.45;;;2.60;;
56299;SDS011;42209;6.376;-10.782;2022-11-15T03:26:01;4.20;;;3.30;;
56299;SDS011;42209;6.376;-10.782;2022-11-15T03:28:58;2.33;;;1.80;;
56299;SDS011;42209;6.376;-10.782;2022-11-15T03:32:12;2.63;;;1.92;;
56299;SDS011;42209;6.376;-10.782;2022-11-15T03:35:14;2.85;;;2.05;;
56299;SDS011;42209;6.376;-10.782;2022-11-15T03:38:21;3.70;;;2.45;;
56299;SDS011;42209;6.376;-10.782;2022-11-15T03:41:17;3.03;;;1.88;;
56299;SDS011;42209;6.376;-10.782;2022-11-15T03:50:20;2.70;;;2.25;;
56299;SDS011;42209;6.376;-10.782;2022-11-15T03:53:10;3.60;;;2.38;;
56299;SDS011;42209;6.376;-10.782;2022-11-15T03:55:57;3.85;;;2.50;;
56299;SDS011;42209;6.376;-10.782;2022-11-15T03:58:43;2.95;;;1.90;;
56299;SDS011;42209;6.376;-10.782;2022-11-15T04:01:29;2.95;;;2.17;;
56299;SDS011;42209;6.376;-10.782;2022-11-15T04:04:16;2.75;;;1.90;;
56299;SDS011;42209;6.376;-10.782;2022-11-15T04:07:03;3.22;;;2.58;;
56299;SDS011;42209;6.376;-10.782;2022-11-15T04:09:50;3.65;;;2.17;;
56299;SDS011;42209;6.376;-10.782;2022-11-15T04:12:38;2.55;;;1.80;;
56299;SDS011;42209;6.376;-10.782;2022-11-15T04:15:26;4.63;;;2.60;;
56299;SDS011;42209;6.376;-10.782;2022-11-15T04:18:12;2.72;;;1.90;;
56299;SDS011;42209;6.376;-10.782;2022-11-15T04:20:59;3.28;;;2.38;;
56299;SDS011;42209;6.376;-10.782;2022-11-15T04:23:45;2.30;;;1.42;;
56299;SDS011;42209;6.376;-10.782;2022-11-15T04:26:32;6.47;;;2.30;;
56299;SDS011;42209;6.376;-10.782;2022-11-15T04:29:19;2.88;;;1.83;;
56299;SDS011;42209;6.376;-10.782;2022-11-15T04:32:06;3.00;;;2.22;;
56299;SDS011;42209;6.376;-10.782;2022-11-15T04:34:52;2.63;;;1.88;;
56299;SDS011;42209;6.376;-10.782;2022-11-15T04:37:39;2.60;;;1.90;;
56299;SDS011;42209;6.376;-10.782;2022-11-15T04:40:33;3.58;;;1.73;;
56299;SDS011;42209;6.376;-10.782;2022-11-15T04:43:20;3.10;;;2.40;;
56299;SDS011;42209;6.376;-10.782;2022-11-15T04:46:06;2.08;;;1.60;;
56299;SDS011;42209;6.376;-10.782;2022-11-15T04:48:53;2.28;;;1.50;;
56299;SDS011;42209;6.376;-10.782;2022-11-15T04:51:43;2.85;;;1.63;;
56299;SDS011;42209;6.376;-10.782;2022-11-15T04:54:29;2.42;;;1.92;;
56299;SDS011;42209;6.376;-10.782;2022-11-15T04:57:16;2.55;;;1.55;;
56299;SDS011;42209;6.376;-10.782;2022-11-15T05:00:03;2.45;;;1.38;;
56299;SDS011;42209;6.376;-10.782;2022-11-15T05:02:51;2.17;;;1.85;;
56299;SDS011;42209;6.376;-10.782;2022-11-15T05:05:37;2.22;;;1.80;;
56299;SDS011;42209;6.376;-10.782;2022-11-15T05:08:24;2.33;;;1.90;;
56299;SDS011;42209;6.376;-10.782;2022-11-15T05:11:10;2.67;;;1.90;;
56299;SDS011;42209;6.376;-10.782;2022-11-15T05:13:57;1.83;;;1.13;;
56299;SDS011;42209;6.376;-10.782;2022-11-15T05:16:43;2.13;;;1.65;;
56299;SDS011;42209;6.376;-10.782;2022-11-15T05:19:30;3.75;;;2.03;;
56299;SDS011;42209;6.376;-10.782;2022-11-15T05:22:16;2.75;;;2.03;;
56299;SDS011;42209;6.376;-10.782;2022-11-15T05:25:03;2.00;;;1.52;;
56299;SDS011;42209;6.376;-10.782;2022-11-15T05:27:50;3.13;;;1.50;;
56299;SDS011;42209;6.376;-10.782;2022-11-15T05:30:37;2.50;;;1.77;;
56299;SDS011;42209;6.376;-10.782;2022-11-15T05:33:23;2.45;;;1.88;;
56299;SDS011;42209;6.376;-10.782;2022-11-15T05:39:08;2.45;;;1.60;;
56299;SDS011;42209;6.376;-10.782;2022-11-15T05:42:16;1.45;;;1.17;;
56299;SDS011;42209;6.376;-10.782;2022-11-15T05:45:03;4.72;;;1.98;;
56299;SDS011;42209;6.376;-10.782;2022-11-15T05:47:51;2.35;;;1.42;;
56299;SDS011;42209;6.376;-10.782;2022-11-15T05:50:43;2.15;;;1.42;;
56299;SDS011;42209;6.376;-10.782;2022-11-15T05:53:32;2.85;;;1.85;;
56299;SDS011;42209;6.376;-10.782;2022-11-15T05:56:20;2.42;;;1.63;;
56299;SDS011;42209;6.376;-10.782;2022-11-15T05:59:07;3.90;;;2.13;;
56299;SDS011;42209;6.376;-10.782;2022-11-15T06:01:54;2.55;;;1.50;;
56299;SDS011;42209;6.376;-10.782;2022-11-15T06:04:41;2.92;;;1.80;;
56299;SDS011;42209;6.376;-10.782;2022-11-15T06:07:28;2.33;;;1.45;;
56299;SDS011;42209;6.376;-10.782;2022-11-15T06:10:15;1.52;;;1.20;;
56299;SDS011;42209;6.376;-10.782;2022-11-15T06:13:03;1.98;;;1.50;;
56299;SDS011;42209;6.376;-10.782;2022-11-15T06:15:50;2.30;;;1.85;;
56299;SDS011;42209;6.376;-10.782;2022-11-15T06:18:36;2.13;;;1.63;;
56299;SDS011;42209;6.376;-10.782;2022-11-15T06:21:23;2.03;;;1.42;;
56299;SDS011;42209;6.376;-10.782;2022-11-15T06:24:10;2.58;;;1.65;;
56299;SDS011;42209;6.376;-10.782;2022-11-15T06:26:56;2.10;;;1.63;;
56299;SDS011;42209;6.376;-10.782;2022-11-15T06:29:43;3.53;;;1.48;;
56299;SDS011;42209;6.376;-10.782;2022-11-15T06:32:30;1.77;;;0.88;;
56299;SDS011;42209;6.376;-10.782;2022-11-15T06:35:17;3.25;;;1.73;;
56299;SDS011;42209;6.376;-10.782;2022-11-15T06:38:08;4.63;;;2.00;;
56299;SDS011;42209;6.376;-10.782;2022-11-15T06:41:00;3.10;;;1.50;;
56299;SDS011;42209;6.376;-10.782;2022-11-15T06:43:51;2.28;;;1.73;;
56299;SDS011;42209;6.376;-10.782;2022-11-15T06:46:38;2.33;;;1.58;;
56299;SDS011;42209;6.376;-10.782;2022-11-15T06:49:24;3.25;;;1.60;;
56299;SDS011;42209;6.376;-10.782;2022-11-15T06:52:11;2.78;;;1.75;;
56299;SDS011;42209;6.376;-10.782;2022-11-15T06:54:57;2.85;;;1.48;;
56299;SDS011;42209;6.376;-10.782;2022-11-15T06:57:47;2.75;;;1.45;;
56299;SDS011;42209;6.376;-10.782;2022-11-15T07:00:38;2.17;;;1.63;;
56299;SDS011;42209;6.376;-10.782;2022-11-15T07:03:24;2.88;;;1.50;;
56299;SDS011;42209;6.376;-10.782;2022-11-15T07:06:10;2.75;;;1.55;;
56299;SDS011;42209;6.376;-10.782;2022-11-15T07:08:57;1.73;;;1.08;;
56299;SDS011;42209;6.376;-10.782;2022-11-15T07:11:43;2.53;;;1.50;;
56299;SDS011;42209;6.376;-10.782;2022-11-15T07:14:29;2.85;;;1.30;;
56299;SDS011;42209;6.376;-10.782;2022-11-15T07:17:16;1.98;;;1.27;;
56299;SDS011;42209;6.376;-10.782;2022-11-15T07:20:02;2.38;;;1.52;;
56299;SDS011;42209;6.376;-10.782;2022-11-15T07:22:49;2.67;;;1.55;;
56299;SDS011;42209;6.376;-10.782;2022-11-15T07:25:35;2.03;;;1.40;;
56299;SDS011;42209;6.376;-10.782;2022-11-15T07:28:22;1.92;;;1.23;;
56299;SDS011;42209;6.376;-10.782;2022-11-15T07:31:09;2.30;;;1.27;;
56299;SDS011;42209;6.376;-10.782;2022-11-15T07:33:56;2.70;;;1.55;;
56299;SDS011;42209;6.376;-10.782;2022-11-15T07:36:42;1.80;;;1.58;;
56299;SDS011;42209;6.376;-10.782;2022-11-15T07:39:29;1.50;;;1.15;;
56299;SDS011;42209;6.376;-10.782;2022-11-15T07:42:15;1.98;;;1.20;;
56299;SDS011;42209;6.376;-10.782;2022-11-15T07:45:02;2.38;;;1.30;;
56299;SDS011;42209;6.376;-10.782;2022-11-15T07:47:48;1.75;;;1.35;;
56299;SDS011;42209;6.376;-10.782;2022-11-15T07:50:35;1.90;;;0.95;;
56299;SDS011;42209;6.376;-10.782;2022-11-15T07:53:21;2.03;;;1.50;;
56299;SDS011;42209;6.376;-10.782;2022-11-15T07:56:07;2.65;;;1.58;;
56299;SDS011;42209;6.376;-10.782;2022-11-15T07:58:54;2.00;;;1.08;;
56299;SDS011;42209;6.376;-10.782;2022-11-15T08:01:40;1.77;;;1.23;;
56299;SDS011;42209;6.376;-10.782;2022-11-15T08:04:27;2.00;;;1.42;;
56299;SDS011;42209;6.376;-10.782;2022-11-15T08:07:14;1.75;;;1.00;;
56299;SDS011;42209;6.376;-10.782;2022-11-15T08:10:00;2.35;;;1.50;;
56299;SDS011;42209;6.376;-10.782;2022-11-15T08:12:47;1.60;;;1.05;;
56299;SDS011;42209;6.376;-10.782;2022-11-15T08:15:34;1.73;;;0.88;;
56299;SDS011;42209;6.376;-10.782;2022-11-15T08:18:22;1.50;;;1.10;;
56299;SDS011;42209;6.376;-10.782;2022-11-15T08:21:09;2.63;;;1.42;;
56299;SDS011;42209;6.376;-10.782;2022-11-15T08:24:02;3.08;;;1.73;;
56299;SDS011;42209;6.376;-10.782;2022-11-15T08:26:49;2.05;;;1.58;;
56299;SDS011;42209;6.376;-10.782;2022-11-15T08:29:36;2.03;;;1.23;;
56299;SDS011;42209;6.376;-10.782;2022-11-15T08:32:22;3.03;;;1.15;;
56299;SDS011;42209;6.376;-10.782;2022-11-15T08:35:08;1.45;;;1.10;;
56299;SDS011;42209;6.376;-10.782;2022-11-15T08:37:55;2.95;;;1.75;;
56299;SDS011;42209;6.376;-10.782;2022-11-15T08:40:41;1.30;;;1.00;;
56299;SDS011;42209;6.376;-10.782;2022-11-15T08:43:27;1.30;;;1.10;;
56299;SDS011;42209;6.376;-10.782;2022-11-15T08:46:15;2.35;;;1.25;;
56299;SDS011;42209;6.376;-10.782;2022-11-15T08:49:01;1.73;;;1.08;;
56299;SDS011;42209;6.376;-10.782;2022-11-15T08:51:48;2.50;;;1.10;;
56299;SDS011;42209;6.376;-10.782;2022-11-15T08:54:35;1.63;;;1.33;;
56299;SDS011;42209;6.376;-10.782;2022-11-15T08:57:21;1.88;;;1.27;;
56299;SDS011;42209;6.376;-10.782;2022-11-15T09:00:08;2.75;;;1.40;;
56299;SDS011;42209;6.376;-10.782;2022-11-15T09:02:55;1.45;;;1.17;;
56299;SDS011;42209;6.376;-10.782;2022-11-15T09:05:42;1.67;;;1.55;;
56299;SDS011;42209;6.376;-10.782;2022-11-15T09:08:29;2.75;;;1.10;;
56299;SDS011;42209;6.376;-10.782;2022-11-15T09:11:32;1.92;;;1.30;;
56299;SDS011;42209;6.376;-10.782;2022-11-15T09:14:19;1.70;;;1.30;;
56299;SDS011;42209;6.376;-10.782;2022-11-15T09:17:09;1.85;;;1.08;;
56299;SDS011;42209;6.376;-10.782;2022-11-15T09:19:55;1.85;;;1.20;;
56299;SDS011;42209;6.376;-10.782;2022-11-15T09:22:42;2.70;;;1.40;;
56299;SDS011;42209;6.376;-10.782;2022-11-15T09:25:28;1.80;;;1.42;;
56299;SDS011;42209;6.376;-10.782;2022-11-15T09:28:15;2.10;;;1.08;;
56299;SDS011;42209;6.376;-10.782;2022-11-15T09:31:02;1.67;;;1.20;;
56299;SDS011;42209;6.376;-10.782;2022-11-15T09:36:36;2.00;;;0.98;;
56299;SDS011;42209;6.376;-10.782;2022-11-15T09:39:23;1.45;;;1.25;;
56299;SDS011;42209;6.376;-10.782;2022-11-15T09:45:26;1.50;;;0.80;;
56299;SDS011;42209;6.376;-10.782;2022-11-15T09:48:31;1.33;;;0.88;;
56299;SDS011;42209;6.376;-10.782;2022-11-15T09:54:11;1.17;;;0.73;;
56299;SDS011;42209;6.376;-10.782;2022-11-15T09:57:12;2.22;;;1.42;;
56299;SDS011;42209;6.376;-10.782;2022-11-15T10:05:29;1.30;;;1.00;;
56299;SDS011;42209;6.376;-10.782;2022-11-15T10:08:03;2.22;;;1.20;;
56299;SDS011;42209;6.376;-10.782;2022-11-15T10:10:50;1.88;;;1.20;;
56299;SDS011;42209;6.376;-10.782;2022-11-15T10:13:43;2.00;;;0.88;;
56299;SDS011;42209;6.376;-10.782;2022-11-15T10:16:27;1.38;;;1.05;;
56299;SDS011;42209;6.376;-10.782;2022-11-15T10:24:50;2.70;;;0.98;;
56299;SDS011;42209;6.376;-10.782;2022-11-15T10:27:27;1.75;;;1.00;;
56299;SDS011;42209;6.376;-10.782;2022-11-15T10:29:57;1.38;;;0.82;;
56299;SDS011;42209;6.376;-10.782;2022-11-15T10:32:25;1.20;;;0.77;;
56299;SDS011;42209;6.376;-10.782;2022-11-15T10:34:54;1.88;;;1.00;;
56299;SDS011;42209;6.376;-10.782;2022-11-15T10:37:29;1.67;;;1.25;;
56299;SDS011;42209;6.376;-10.782;2022-11-15T10:40:05;1.48;;;0.77;;
56299;SDS011;42209;6.376;-10.782;2022-11-15T10:42:43;2.08;;;1.17;;
56299;SDS011;42209;6.376;-10.782;2022-11-15T10:45:28;1.77;;;0.82;;
56299;SDS011;42209;6.376;-10.782;2022-11-15T10:50:45;2.17;;;1.23;;
56299;SDS011;42209;6.376;-10.782;2022-11-15T10:56:11;1.23;;;0.70;;
56299;SDS011;42209;6.376;-10.782;2022-11-15T10:58:42;1.15;;;1.05;;
56299;SDS011;42209;6.376;-10.782;2022-11-15T11:01:25;1.25;;;1.00;;
56299;SDS011;42209;6.376;-10.782;2022-11-15T11:12:05;2.17;;;0.98;;
56299;SDS011;42209;6.376;-10.782;2022-11-15T11:14:38;1.63;;;1.05;;
56299;SDS011;42209;6.376;-10.782;2022-11-15T11:17:17;1.70;;;0.98;;
56299;SDS011;42209;6.376;-10.782;2022-11-15T11:28:45;1.42;;;0.75;;
56299;SDS011;42209;6.376;-10.782;2022-11-15T11:31:29;1.75;;;0.98;;
56299;SDS011;42209;6.376;-10.782;2022-11-15T11:37:17;1.90;;;0.95;;
56299;SDS011;42209;6.376;-10.782;2022-11-15T11:40:06;1.95;;;1.33;;
56299;SDS011;42209;6.376;-10.782;2022-11-15T11:43:09;1.52;;;1.10;;
56299;SDS011;42209;6.376;-10.782;2022-11-15T11:45:48;1.08;;;0.75;;
56299;SDS011;42209;6.376;-10.782;2022-11-15T11:51:18;1.50;;;0.90;;
56299;SDS011;42209;6.376;-10.782;2022-11-15T11:53:53;1.55;;;0.95;;
56299;SDS011;42209;6.376;-10.782;2022-11-15T11:56:33;2.33;;;1.52;;
56299;SDS011;42209;6.376;-10.782;2022-11-15T11:59:12;1.45;;;0.95;;
56299;SDS011;42209;6.376;-10.782;2022-11-15T12:01:44;2.33;;;1.30;;
56299;SDS011;42209;6.376;-10.782;2022-11-15T12:04:19;1.70;;;0.93;;
56299;SDS011;42209;6.376;-10.782;2022-11-15T12:06:55;1.40;;;0.90;;
56299;SDS011;42209;6.376;-10.782;2022-11-15T12:12:13;2.25;;;1.38;;
56299;SDS011;42209;6.376;-10.782;2022-11-15T12:14:58;1.30;;;0.82;;
56299;SDS011;42209;6.376;-10.782;2022-11-15T12:17:31;1.63;;;1.00;;
56299;SDS011;42209;6.376;-10.782;2022-11-15T12:20:00;1.50;;;1.00;;
56299;SDS011;42209;6.376;-10.782;2022-11-15T12:22:42;2.65;;;1.40;;
56299;SDS011;42209;6.376;-10.782;2022-11-15T12:27:54;2.00;;;0.98;;
56299;SDS011;42209;6.376;-10.782;2022-11-15T12:30:49;2.13;;;1.30;;
56299;SDS011;42209;6.376;-10.782;2022-11-15T12:33:31;1.55;;;1.02;;
56299;SDS011;42209;6.376;-10.782;2022-11-15T12:36:02;2.58;;;1.40;;
56299;SDS011;42209;6.376;-10.782;2022-11-15T12:41:23;0.95;;;0.80;;
56299;SDS011;42209;6.376;-10.782;2022-11-15T12:43:56;2.47;;;1.40;;
56299;SDS011;42209;6.376;-10.782;2022-11-15T13:02:25;3.63;;;0.90;;
56299;SDS011;42209;6.376;-10.782;2022-11-15T13:12:48;2.25;;;1.50;;
56299;SDS011;42209;6.376;-10.782;2022-11-15T13:21:03;1.77;;;1.58;;
56299;SDS011;42209;6.376;-10.782;2022-11-15T13:23:45;2.83;;;1.80;;
56299;SDS011;42209;6.376;-10.782;2022-11-15T13:26:18;2.47;;;1.65;;
56299;SDS011;42209;6.376;-10.782;2022-11-15T13:28:50;2.47;;;1.92;;
56299;SDS011;42209;6.376;-10.782;2022-11-15T13:31:24;2.47;;;1.67;;
56299;SDS011;42209;6.376;-10.782;2022-11-15T13:34:16;2.30;;;1.65;;
56299;SDS011;42209;6.376;-10.782;2022-11-15T13:42:54;3.83;;;2.08;;
56299;SDS011;42209;6.376;-10.782;2022-11-15T13:45:23;2.95;;;2.17;;
56299;SDS011;42209;6.376;-10.782;2022-11-15T13:47:55;3.17;;;2.17;;
56299;SDS011;42209;6.376;-10.782;2022-11-15T13:50:31;3.58;;;1.88;;
56299;SDS011;42209;6.376;-10.782;2022-11-15T13:53:03;2.35;;;2.05;;
56299;SDS011;42209;6.376;-10.782;2022-11-15T13:55:32;2.22;;;1.90;;
56299;SDS011;42209;6.376;-10.782;2022-11-15T14:06:02;2.90;;;2.15;;
56299;SDS011;42209;6.376;-10.782;2022-11-15T14:08:32;2.45;;;2.03;;
56299;SDS011;42209;6.376;-10.782;2022-11-15T14:11:18;2.90;;;2.42;;
56299;SDS011;42209;6.376;-10.782;2022-11-15T14:24:36;3.17;;;2.55;;
56299;SDS011;42209;6.376;-10.782;2022-11-15T14:29:48;3.08;;;2.75;;
56299;SDS011;42209;6.376;-10.782;2022-11-15T14:32:18;2.80;;;2.53;;
56299;SDS011;42209;6.376;-10.782;2022-11-15T14:37:30;2.80;;;2.40;;
56299;SDS011;42209;6.376;-10.782;2022-11-15T14:40:02;2.40;;;2.20;;
56299;SDS011;42209;6.376;-10.782;2022-11-15T14:42:33;2.72;;;2.20;;
56299;SDS011;42209;6.376;-10.782;2022-11-15T14:45:01;3.50;;;2.78;;
56299;SDS011;42209;6.376;-10.782;2022-11-15T14:47:29;2.80;;;2.28;;
56299;SDS011;42209;6.376;-10.782;2022-11-15T14:49:58;3.22;;;2.40;;
56299;SDS011;42209;6.376;-10.782;2022-11-15T14:54:59;3.40;;;3.05;;
56299;SDS011;42209;6.376;-10.782;2022-11-15T14:57:28;2.97;;;2.67;;
56299;SDS011;42209;6.376;-10.782;2022-11-15T14:59:57;2.70;;;2.50;;
56299;SDS011;42209;6.376;-10.782;2022-11-15T15:02:38;3.00;;;2.17;;
56299;SDS011;42209;6.376;-10.782;2022-11-15T15:05:14;2.60;;;2.25;;
56299;SDS011;42209;6.376;-10.782;2022-11-15T15:07:44;4.05;;;2.92;;
56299;SDS011;42209;6.376;-10.782;2022-11-15T15:10:14;2.65;;;2.15;;
56299;SDS011;42209;6.376;-10.782;2022-11-15T15:13:03;3.85;;;2.58;;
56299;SDS011;42209;6.376;-10.782;2022-11-15T15:15:34;3.92;;;2.80;;
56299;SDS011;42209;6.376;-10.782;2022-11-15T15:18:04;2.88;;;2.67;;
56299;SDS011;42209;6.376;-10.782;2022-11-15T15:20:33;3.25;;;2.80;;
56299;SDS011;42209;6.376;-10.782;2022-11-15T15:23:02;3.53;;;2.60;;
56299;SDS011;42209;6.376;-10.782;2022-11-15T15:25:31;3.15;;;2.30;;
56299;SDS011;42209;6.376;-10.782;2022-11-15T15:28:01;2.53;;;1.92;;
56299;SDS011;42209;6.376;-10.782;2022-11-15T15:30:30;4.07;;;3.10;;
56299;SDS011;42209;6.376;-10.782;2022-11-15T15:32:58;4.63;;;2.97;;
56299;SDS011;42209;6.376;-10.782;2022-11-15T15:35:30;3.20;;;2.47;;
56299;SDS011;42209;6.376;-10.782;2022-11-15T15:38:00;3.53;;;2.67;;
56299;SDS011;42209;6.376;-10.782;2022-11-15T15:42:59;4.18;;;3.00;;
56299;SDS011;42209;6.376;-10.782;2022-11-15T15:45:27;2.83;;;2.60;;
56299;SDS011;42209;6.376;-10.782;2022-11-15T15:47:56;3.80;;;2.17;;
56299;SDS011;42209;6.376;-10.782;2022-11-15T15:50:25;2.92;;;2.50;;
56299;SDS011;42209;6.376;-10.782;2022-11-15T15:52:55;2.30;;;1.95;;
56299;SDS011;42209;6.376;-10.782;2022-11-15T15:55:25;3.83;;;2.50;;
56299;SDS011;42209;6.376;-10.782;2022-11-15T15:57:54;3.30;;;2.97;;
56299;SDS011;42209;6.376;-10.782;2022-11-15T16:00:22;2.47;;;2.15;;
56299;SDS011;42209;6.376;-10.782;2022-11-15T16:02:52;2.80;;;2.38;;
56299;SDS011;42209;6.376;-10.782;2022-11-15T16:05:21;3.53;;;2.53;;
56299;SDS011;42209;6.376;-10.782;2022-11-15T16:07:50;5.22;;;2.75;;
56299;SDS011;42209;6.376;-10.782;2022-11-15T16:10:28;4.55;;;3.13;;
56299;SDS011;42209;6.376;-10.782;2022-11-15T16:13:01;3.60;;;2.65;;
56299;SDS011;42209;6.376;-10.782;2022-11-15T16:17:59;3.75;;;2.60;;
56299;SDS011;42209;6.376;-10.782;2022-11-15T16:23:07;4.28;;;3.13;;
56299;SDS011;42209;6.376;-10.782;2022-11-15T16:28:25;2.80;;;2.60;;
56299;SDS011;42209;6.376;-10.782;2022-11-15T16:31:05;3.70;;;2.70;;
56299;SDS011;42209;6.376;-10.782;2022-11-15T16:38:08;3.00;;;2.63;;
56299;SDS011;42209;6.376;-10.782;2022-11-15T16:40:42;3.50;;;2.65;;
56299;SDS011;42209;6.376;-10.782;2022-11-15T16:43:10;2.92;;;2.10;;
56299;SDS011;42209;6.376;-10.782;2022-11-15T16:45:39;2.38;;;1.90;;
56299;SDS011;42209;6.376;-10.782;2022-11-15T16:48:09;2.42;;;2.17;;
56299;SDS011;42209;6.376;-10.782;2022-11-15T16:50:57;3.40;;;2.33;;
56299;SDS011;42209;6.376;-10.782;2022-11-15T16:53:26;2.65;;;2.35;;
56299;SDS011;42209;6.376;-10.782;2022-11-15T16:55:54;3.35;;;2.28;;
56299;SDS011;42209;6.376;-10.782;2022-11-15T16:58:23;2.28;;;2.08;;
56299;SDS011;42209;6.376;-10.782;2022-11-15T17:00:52;3.15;;;2.42;;
56299;SDS011;42209;6.376;-10.782;2022-11-15T17:03:22;3.00;;;2.10;;
56299;SDS011;42209;6.376;-10.782;2022-11-15T17:05:51;2.63;;;2.25;;
56299;SDS011;42209;6.376;-10.782;2022-11-15T17:08:19;3.10;;;2.13;;
56299;SDS011;42209;6.376;-10.782;2022-11-15T17:10:48;3.03;;;2.35;;
56299;SDS011;42209;6.376;-10.782;2022-11-15T17:13:16;3.25;;;2.53;;
56299;SDS011;42209;6.376;-10.782;2022-11-15T17:15:44;2.50;;;2.30;;
56299;SDS011;42209;6.376;-10.782;2022-11-15T17:18:12;2.40;;;2.20;;
56299;SDS011;42209;6.376;-10.782;2022-11-15T17:20:40;2.33;;;2.05;;
56299;SDS011;42209;6.376;-10.782;2022-11-15T17:23:12;3.22;;;2.53;;
56299;SDS011;42209;6.376;-10.782;2022-11-15T17:25:42;4.13;;;2.22;;
56299;SDS011;42209;6.376;-10.782;2022-11-15T17:28:10;2.88;;;2.38;;
56299;SDS011;42209;6.376;-10.782;2022-11-15T17:30:41;2.55;;;2.35;;
56299;SDS011;42209;6.376;-10.782;2022-11-15T17:33:10;3.85;;;2.20;;
56299;SDS011;42209;6.376;-10.782;2022-11-15T17:35:38;2.45;;;2.25;;
56299;SDS011;42209;6.376;-10.782;2022-11-15T17:38:06;3.05;;;2.22;;
56299;SDS011;42209;6.376;-10.782;2022-11-15T17:40:36;2.88;;;2.55;;
56299;SDS011;42209;6.376;-10.782;2022-11-15T17:43:05;3.35;;;2.67;;
56299;SDS011;42209;6.376;-10.782;2022-11-15T17:45:33;2.65;;;2.15;;
56299;SDS011;42209;6.376;-10.782;2022-11-15T17:48:01;2.45;;;1.88;;
56299;SDS011;42209;6.376;-10.782;2022-11-15T17:50:30;2.70;;;2.47;;
56299;SDS011;42209;6.376;-10.782;2022-11-15T17:52:58;2.60;;;2.30;;
56299;SDS011;42209;6.376;-10.782;2022-11-15T17:55:27;2.10;;;1.83;;
56299;SDS011;42209;6.376;-10.782;2022-11-15T17:57:55;4.05;;;2.28;;
56299;SDS011;42209;6.376;-10.782;2022-11-15T18:00:24;2.50;;;2.28;;
56299;SDS011;42209;6.376;-10.782;2022-11-15T18:02:52;2.28;;;2.08;;
56299;SDS011;42209;6.376;-10.782;2022-11-15T18:05:23;2.65;;;2.45;;
56299;SDS011;42209;6.376;-10.782;2022-11-15T18:07:51;4.13;;;2.42;;
56299;SDS011;42209;6.376;-10.782;2022-11-15T18:10:19;2.40;;;2.20;;
56299;SDS011;42209;6.376;-10.782;2022-11-15T18:12:47;3.72;;;2.78;;
56299;SDS011;42209;6.376;-10.782;2022-11-15T18:15:16;3.40;;;2.50;;
56299;SDS011;42209;6.376;-10.782;2022-11-15T18:17:44;3.33;;;2.35;;
56299;SDS011;42209;6.376;-10.782;2022-11-15T18:20:12;3.72;;;2.47;;
56299;SDS011;42209;6.376;-10.782;2022-11-15T18:22:40;3.28;;;2.33;;
56299;SDS011;42209;6.376;-10.782;2022-11-15T18:25:08;4.50;;;2.78;;
56299;SDS011;42209;6.376;-10.782;2022-11-15T18:27:37;2.45;;;1.95;;
56299;SDS011;42209;6.376;-10.782;2022-11-15T18:30:05;2.50;;;2.30;;
56299;SDS011;42209;6.376;-10.782;2022-11-15T18:32:34;3.83;;;2.70;;
56299;SDS011;42209;6.376;-10.782;2022-11-15T18:35:02;4.60;;;2.45;;
56299;SDS011;42209;6.376;-10.782;2022-11-15T18:39:59;2.38;;;2.05;;
56299;SDS011;42209;6.376;-10.782;2022-11-15T18:42:27;2.33;;;2.13;;
56299;SDS011;42209;6.376;-10.782;2022-11-15T18:44:55;2.55;;;2.35;;
56299;SDS011;42209;6.376;-10.782;2022-11-15T18:47:23;2.63;;;2.42;;
56299;SDS011;42209;6.376;-10.782;2022-11-15T18:49:52;3.08;;;2.30;;
56299;SDS011;42209;6.376;-10.782;2022-11-15T18:52:20;2.92;;;1.88;;
56299;SDS011;42209;6.376;-10.782;2022-11-15T18:54:48;2.63;;;2.00;;
56299;SDS011;42209;6.376;-10.782;2022-11-15T18:57:16;2.53;;;2.30;;
56299;SDS011;42209;6.376;-10.782;2022-11-15T18:59:45;2.60;;;2.40;;
56299;SDS011;42209;6.376;-10.782;2022-11-15T19:02:13;3.33;;;2.40;;
56299;SDS011;42209;6.376;-10.782;2022-11-15T19:04:41;2.58;;;2.20;;